Sunday, September 15, 2019, 12:05 PM EDT
Back to Local

KEEN, Keene, Dillant-hopkins Airport

Location: Keene, NH, United States Lat: 42.9
Local Time: 12:05 PM EDT (16:05 GMT) Lon: -72.267
Time Zone: US/Eastern Elev: 488 ft

Show me the last for .
Show Decoded

2019-09-15 10:56 METAR KEEN 151456Z AUTO 33007KT 10SM CLR 21/11 A3013 RMK AO2 SLP206 T02110111
                 58007 $ =
2019-09-15 07:56 METAR KEEN 151156Z AUTO 00000KT 8SM FEW002 13/13 A3015 RMK AO2 SLP215 7////
                 T01330133 10172 20117 51003 $ =
2019-09-15 07:53 METAR KEEN 151153Z AUTO 00000KT 7SM FEW002 13/13 A3015 RMK AO2 $ =
2019-09-15 07:45 METAR KEEN 151145Z AUTO 00000KT 2SM BR FEW002 13/13 A3015 RMK AO2 VIS 3/4V5 $ =
2019-09-15 07:39 METAR KEEN 151139Z AUTO 00000KT 1SM BR VV002 13/13 A3015 RMK AO2 VIS 3/4V3 $ =
2019-09-15 07:31 METAR KEEN 151131Z AUTO 00000KT 1/2SM FG VV002 12/12 A3015 RMK AO2 $ =
2019-09-15 06:05 METAR KEEN 151005Z AUTO 00000KT 1/4SM FG VV001 13/12 A3015 RMK AO2 $ =
2019-09-15 05:56 METAR KEEN 150956Z AUTO 00000KT 1/2SM FG VV001 12/12 A3015 RMK AO2 SLP212
                 T01220122 $ =
2019-09-15 05:52 METAR KEEN 150952Z AUTO 00000KT 1SM BR CLR 13/13 A3014 RMK AO2 VIS 1/2V5 $ =
2019-09-15 05:36 METAR KEEN 150936Z AUTO 00000KT 2SM BR FEW001 14/14 A3014 RMK AO2 VIS 1/2V5 $ =
2019-09-15 05:23 METAR KEEN 150923Z AUTO 00000KT 1SM BR VV001 14/14 A3014 RMK AO2 VIS 1/2V2 $ =
2019-09-15 05:21 METAR KEEN 150921Z AUTO 00000KT 1 1/4SM BR BKN001 14/14 A3014 RMK AO2 VIS 1/2V4
                 $ =
2019-09-15 05:09 METAR KEEN 150909Z AUTO 00000KT 1 1/4SM BR FEW001 14/13 A3014 RMK AO2 VIS 1/2V5
                 $ =
2019-09-15 04:58 METAR KEEN 150858Z AUTO 21005KT 2 1/2SM BR SCT001 15/15 A3014 RMK AO2 VIS 3/4V5
                 $ =
2019-09-15 04:56 METAR KEEN 150856Z AUTO 22004KT 1SM BR VV001 15/15 A3014 RMK AO2 SLP210
                 T01500150 53000 $ =
2019-09-15 04:35 METAR KEEN 150835Z AUTO 00000KT 1/2SM FG VV001 14/14 A3014 RMK AO2 $ =
2019-09-15 04:31 METAR KEEN 150831Z AUTO 00000KT 3/4SM BR CLR 15/15 A3014 RMK AO2 $ =
2019-09-15 04:12 METAR KEEN 150812Z AUTO 00000KT 1 1/4SM BR FEW003 15/15 A3014 RMK AO2 VIS 1/2V5
                 $ =
2019-09-15 04:03 METAR KEEN 150803Z AUTO 00000KT 3/4SM BR VV003 15/15 A3014 RMK AO2 $ =
2019-09-15 04:01 METAR KEEN 150801Z AUTO 00000KT 1SM BR VV004 15/15 A3013 RMK AO2 $ =
2019-09-15 03:56 METAR KEEN 150756Z AUTO 18003KT 2 1/2SM BR BKN005 16/16 A3013 RMK AO2 VIS 1
                 1/4V5 SLP207 T01560156 $ =
2019-09-15 03:34 METAR KEEN 150734Z AUTO 20003KT 10SM BKN005 OVC065 17/16 A3013 RMK AO2 CIG
                 003V007 $ =
2019-09-15 03:11 METAR KEEN 150711Z AUTO 18003KT 10SM BKN007 OVC070 17/16 A3013 RMK AO2 $ =
2019-09-15 02:56 METAR KEEN 150656Z AUTO 17004KT 10SM SCT005 OVC070 16/16 A3013 RMK AO2 SLP207
                 T01610161 $ =
2019-09-15 02:25 METAR KEEN 150625Z AUTO 00000KT 10SM BKN005 OVC044 17/16 A3013 RMK AO2 $ =
2019-09-15 02:14 METAR KEEN 150614Z AUTO 00000KT 10SM SCT005 OVC042 17/17 A3014 RMK AO2 $ =
2019-09-15 01:56 METAR KEEN 150556Z AUTO 18004KT 10SM OVC040 17/17 A3014 RMK AO2 SLP209 T01720167
                 10183 20161 56004 $ =
2019-09-15 01:33 METAR KEEN 150533Z AUTO 19004KT 10SM SCT008 OVC038 17/17 A3014 RMK AO2 $ =
2019-09-15 00:56 METAR KEEN 150456Z AUTO 00000KT 10SM OVC008 17/17 A3014 RMK AO2 SLP212 T01720167
                 401830072 $ =
2019-09-14 23:33 METAR KEEN 150333Z AUTO 00000KT 9SM OVC008 17/17 A3015 RMK AO2 $ =
2019-09-14 22:56 METAR KEEN 150256Z AUTO 00000KT 10SM BKN010 17/16 A3015 RMK AO2 SLP214 T01670161
                 58004 $ =
2019-09-14 22:15 METAR KEEN 150215Z AUTO 00000KT 10SM BKN010 18/17 A3016 RMK AO2 CIG 008V013 $ =
2019-09-14 21:56 METAR KEEN 150156Z AUTO 20006KT 10SM SCT010 BKN022 BKN045 18/17 A3015 RMK AO2
                 SLP215 T01780172 $ =
2019-09-14 21:21 METAR KEEN 150121Z AUTO 18006KT 10SM SCT011 BKN022 OVC038 18/17 A3016 RMK AO2 $
                 =
2019-09-14 20:56 METAR KEEN 150056Z AUTO 00000KT 10SM OVC011 17/17 A3017 RMK AO2 SLP220 T01720167
                 $ =
2019-09-14 19:56 METAR KEEN 142356Z AUTO 21003KT 10SM OVC011 18/17 A3016 RMK AO2 SLP217 60001
                 T01780167 10178 20167 56007 $ =
2019-09-14 18:56 METAR KEEN 142256Z AUTO 00000KT 10SM OVC013 18/17 A3016 RMK AO2 SLP217 T01780167
                 $ =
2019-09-14 17:56 METAR KEEN 142156Z AUTO 14004KT 10SM OVC013 18/16 A3017 RMK AO2 SLP221 T01780161
                 $ =
2019-09-14 17:43 METAR KEEN 142143Z AUTO 15004KT 10SM OVC013 18/16 A3017 RMK AO2 $ =
2019-09-14 16:56 METAR KEEN 142056Z AUTO 00000KT 9SM BKN019 OVC024 17/16 A3018 RMK AO2 SLP225
                 60001 T01670161 56017 $ =
2019-09-14 15:56 METAR KEEN 141956Z AUTO 17006KT 10SM OVC027 17/16 A3019 RMK AO2 RAE10 SLP229
                 P0000 T01720161 $ =
2019-09-14 15:05 METAR KEEN 141905Z AUTO 20003KT 10SM -RA SCT013 OVC029 17/16 A3021 RMK AO2 P0000
                 $ =
2019-09-14 14:56 METAR KEEN 141856Z AUTO 15003KT 8SM -RA BKN013 OVC029 17/16 A3021 RMK AO2 RAB19
                 SLP237 P0001 T01670156 $ =
2019-09-14 14:36 METAR KEEN 141836Z AUTO 19005KT 3SM -RA BR BKN013 BKN019 OVC029 17/16 A3022 RMK
                 AO2 RAB19 P0001 $ =
2019-09-14 14:32 METAR KEEN 141832Z AUTO 18004KT 2 1/2SM -RA BR BKN015 BKN019 OVC029 17/16 A3022
                 RMK AO2 VIS 1 1/2V4 RAB19 P0001 $ =
2019-09-14 13:56 METAR KEEN 141756Z AUTO 19007KT 10SM OVC017 17/15 A3023 RMK AO2 SLP244 6////
                 T01720150 10172 20111 56021 $ =
2019-09-14 12:56 METAR KEEN 141656Z AUTO 19007KT 10SM BKN019 OVC038 16/14 A3025 RMK AO2 RAE37
                 SLP248 T01610144 $ =
2019-09-14 12:39 METAR KEEN 141639Z AUTO 20006KT 10SM BKN019 OVC040 16/14 A3026 RMK AO2 RAE37 $ =

Support USWX by starting your Amazon purchase here.